createdAt,value
2019-01-14T00:00:07.412Z,99.90
2019-01-14T00:02:48.693Z,99.90
2019-01-14T00:05:29.336Z,99.90
2019-01-14T00:08:10.740Z,99.90
2019-01-14T00:10:51.904Z,99.90
2019-01-14T00:13:33.322Z,99.90
2019-01-14T00:16:21.565Z,99.90
2019-01-14T00:19:10.026Z,99.90
2019-01-14T00:21:58.359Z,99.90
2019-01-14T00:24:46.665Z,96.10
2019-01-14T00:27:34.967Z,99.90
2019-01-14T00:30:23.610Z,90.50
2019-01-14T00:33:04.446Z,99.00
2019-01-14T00:35:45.616Z,95.50
2019-01-14T00:38:26.519Z,83.30
2019-01-14T00:41:07.166Z,99.90
2019-01-14T00:43:47.900Z,99.90
2019-01-14T00:46:28.981Z,99.90
2019-01-14T00:49:09.545Z,99.90
2019-01-14T00:51:50.392Z,99.90
2019-01-14T00:57:13.967Z,99.90
2019-01-14T00:59:55.297Z,99.90
2019-01-14T01:02:35.838Z,99.90
2019-01-14T01:05:17.431Z,99.90
2019-01-14T01:07:58.815Z,99.90
2019-01-14T01:10:39.969Z,99.90
2019-01-14T01:13:24.141Z,99.90
2019-01-14T01:16:05.402Z,99.90
2019-01-14T01:18:46.191Z,99.90
2019-01-14T01:21:27.365Z,99.90
2019-01-14T01:24:08.981Z,99.90
2019-01-14T01:26:50.264Z,99.90
2019-01-14T01:29:31.660Z,99.90
2019-01-14T01:32:12.174Z,99.90
2019-01-14T01:34:53.847Z,99.90
2019-01-14T01:40:17.849Z,99.90
2019-01-14T01:42:59.376Z,99.90
2019-01-14T01:45:39.990Z,99.90
2019-01-14T01:48:21.358Z,99.90
2019-01-14T01:51:02.776Z,99.90
2019-01-14T01:53:44.160Z,99.90
2019-01-14T01:56:32.793Z,99.90
2019-01-14T01:59:34.189Z,99.90
2019-01-14T02:02:10.983Z,99.90
2019-01-14T02:05:12.043Z,99.90
2019-01-14T02:10:43.507Z,99.90
2019-01-14T02:13:31.823Z,99.90
2019-01-14T02:16:34.120Z,99.90
2019-01-14T02:19:10.311Z,99.90
2019-01-14T02:21:58.585Z,99.90
2019-01-14T02:24:47.081Z,99.90
2019-01-14T02:27:35.410Z,99.90
2019-01-14T02:30:23.805Z,99.90
2019-01-14T02:33:05.334Z,99.90
2019-01-14T02:35:46.789Z,99.90
2019-01-14T02:38:27.375Z,99.90
2019-01-14T02:41:08.210Z,99.90
2019-01-14T02:46:28.661Z,99.90
2019-01-14T02:49:09.709Z,99.90
2019-01-14T02:51:50.983Z,99.90
2019-01-14T02:57:17.547Z,99.90
2019-01-14T02:59:58.764Z,99.90
2019-01-14T03:02:39.617Z,99.70
2019-01-14T03:05:21.014Z,99.90
2019-01-14T03:08:01.807Z,99.90
2019-01-14T03:10:44.087Z,99.90
2019-01-14T03:13:25.870Z,99.90
2019-01-14T03:18:51.211Z,95.80
2019-01-14T03:21:32.657Z,97.00
2019-01-14T03:24:16.940Z,99.90
2019-01-14T03:26:58.089Z,96.10
2019-01-14T03:29:38.941Z,91.20
2019-01-14T03:32:20.288Z,99.90
2019-01-14T03:35:01.466Z,88.90
2019-01-14T03:37:42.610Z,97.70
2019-01-14T03:40:24.235Z,96.10
2019-01-14T03:43:05.300Z,95.80
2019-01-14T03:45:46.211Z,99.90
2019-01-14T03:48:28.193Z,74.30
2019-01-14T03:51:09.388Z,80.20
2019-01-14T03:53:38.465Z,91.40
2019-01-14T03:56:26.968Z,75.00
2019-01-14T03:59:15.445Z,82.30
2019-01-14T04:02:04.187Z,97.00
2019-01-14T04:04:52.608Z,98.00
2019-01-14T04:07:41.559Z,94.70
2019-01-14T04:10:29.839Z,78.10
2019-01-14T04:13:18.378Z,76.30
2019-01-14T04:16:06.755Z,78.60
2019-01-14T04:18:55.642Z,64.50
2019-01-14T04:21:44.328Z,61.20
2019-01-14T04:24:32.636Z,49.40
2019-01-14T04:27:21.108Z,59.70
2019-01-14T04:33:18.163Z,46.90
2019-01-14T04:35:59.236Z,5.50
2019-01-14T04:38:40.666Z,8.50
2019-01-14T04:41:22.436Z,1.00
2019-01-14T04:44:03.755Z,13.10
2019-01-14T04:46:44.405Z,1.00
2019-01-14T04:52:09.314Z,1.00
2019-01-14T04:57:33.748Z,1.00
2019-01-14T05:03:01.512Z,1.00
2019-01-14T05:05:46.241Z,99.90
2019-01-14T05:08:28.080Z,99.90
2019-01-14T05:11:08.868Z,99.90
2019-01-14T05:13:50.051Z,99.90
2019-01-14T05:16:31.459Z,99.90
2019-01-14T05:19:12.766Z,99.90
2019-01-14T05:21:54.177Z,99.90
2019-01-14T05:27:24.202Z,99.90
2019-01-14T05:33:05.051Z,99.90
2019-01-14T05:35:46.160Z,99.90
2019-01-14T05:38:28.019Z,99.90
2019-01-14T05:43:58.243Z,99.90
2019-01-14T05:49:25.055Z,99.90
2019-01-14T05:52:06.469Z,99.90
2019-01-14T05:54:47.085Z,99.90
2019-01-14T05:57:28.561Z,99.90
2019-01-14T06:00:09.858Z,99.90
2019-01-14T06:02:51.379Z,99.90
2019-01-14T06:08:17.038Z,99.90
2019-01-14T06:13:41.880Z,99.90
2019-01-14T06:16:23.279Z,99.90
2019-01-14T06:19:04.375Z,99.90
2019-01-14T06:21:45.915Z,99.90
2019-01-14T06:24:27.559Z,99.90
2019-01-14T06:27:08.771Z,99.90
2019-01-14T06:35:31.459Z,99.90
2019-01-14T06:38:12.402Z,99.90
2019-01-14T06:40:54.043Z,99.90
2019-01-14T06:49:12.585Z,99.90
2019-01-14T06:51:54.115Z,99.90
2019-01-14T07:00:20.936Z,99.90
2019-01-14T07:03:02.475Z,99.90
2019-01-14T07:05:44.127Z,99.90
2019-01-14T07:11:15.073Z,99.90
2019-01-14T07:16:40.737Z,99.90
2019-01-14T07:22:10.794Z,99.90
2019-01-14T07:24:54.650Z,99.90
2019-01-14T07:27:36.200Z,99.90
2019-01-14T07:30:17.783Z,99.90
2019-01-14T07:38:38.301Z,99.90
2019-01-14T07:41:19.285Z,99.90
2019-01-14T07:44:00.717Z,99.90
2019-01-14T07:46:42.042Z,99.90
2019-01-14T07:52:08.732Z,47.20
2019-01-14T07:54:50.065Z,12.80
2019-01-14T07:57:32.123Z,99.90
2019-01-14T08:00:13.242Z,99.90
2019-01-14T08:02:53.745Z,99.90
2019-01-14T08:08:27.005Z,99.90
2019-01-14T08:13:50.222Z,99.90
2019-01-14T08:19:16.763Z,99.90
2019-01-14T08:21:58.312Z,99.90
2019-01-14T08:24:39.682Z,99.90
2019-01-14T08:30:03.420Z,99.90
2019-01-14T08:32:44.438Z,99.90
2019-01-14T08:38:12.735Z,99.90
2019-01-14T08:40:53.783Z,99.90
2019-01-14T08:43:37.860Z,99.90
2019-01-14T08:46:19.106Z,99.90
2019-01-14T08:48:59.910Z,99.90
2019-01-14T08:51:41.493Z,99.90
2019-01-14T08:54:22.706Z,99.90
2019-01-14T08:57:03.964Z,99.90
2019-01-14T09:02:32.608Z,99.90
2019-01-14T09:05:13.463Z,99.90
2019-01-14T09:07:54.795Z,99.90
2019-01-14T09:10:35.554Z,99.90
2019-01-14T09:13:16.354Z,99.90
2019-01-14T09:15:57.576Z,99.90
2019-01-14T09:18:39.633Z,99.90
2019-01-14T09:21:20.837Z,99.90
2019-01-14T09:24:01.652Z,99.90
2019-01-14T09:26:42.905Z,99.90
2019-01-14T09:29:24.328Z,99.90
2019-01-14T09:32:06.129Z,99.90
2019-01-14T09:34:46.842Z,99.90
2019-01-14T09:37:28.138Z,99.90
2019-01-14T09:40:08.856Z,99.90
2019-01-14T09:42:50.449Z,99.90
2019-01-14T09:45:31.090Z,99.90
2019-01-14T09:48:12.279Z,99.90
2019-01-14T09:50:53.290Z,99.90
2019-01-14T09:53:34.389Z,99.90
2019-01-14T09:56:16.032Z,99.90
2019-01-14T10:01:39.221Z,99.90
2019-01-14T10:04:20.621Z,99.90
2019-01-14T10:07:02.044Z,99.90
2019-01-14T10:12:27.777Z,99.90
2019-01-14T10:15:09.467Z,99.90
2019-01-14T10:17:53.754Z,99.90
2019-01-14T10:20:34.887Z,99.90
2019-01-14T10:23:18.977Z,99.90
2019-01-14T10:26:01.285Z,99.90
2019-01-14T10:28:43.625Z,99.90
2019-01-14T10:31:24.478Z,99.90
2019-01-14T10:34:05.480Z,99.90
2019-01-14T10:36:45.998Z,99.90
2019-01-14T10:39:26.955Z,99.90
2019-01-14T10:42:08.189Z,99.90
2019-01-14T10:50:44.517Z,99.90
2019-01-14T10:53:25.476Z,99.90
2019-01-14T10:58:53.059Z,99.90
2019-01-14T11:01:34.176Z,99.90
2019-01-14T11:04:15.555Z,99.90
2019-01-14T11:09:44.643Z,99.90
2019-01-14T11:18:04.667Z,99.90
2019-01-14T11:20:46.431Z,99.90
2019-01-14T11:23:27.074Z,99.90
2019-01-14T11:26:08.510Z,99.90
2019-01-14T11:28:49.837Z,99.90
2019-01-14T11:34:17.252Z,99.90
2019-01-14T11:36:58.851Z,99.90
2019-01-14T11:39:40.350Z,99.90
2019-01-14T11:47:54.188Z,99.90
2019-01-14T11:50:37.090Z,99.90
2019-01-14T11:56:02.473Z,99.90
2019-01-14T11:58:43.871Z,99.90
2019-01-14T12:01:24.807Z,99.90
2019-01-14T12:04:06.696Z,99.90
2019-01-14T12:09:36.740Z,99.90
2019-01-14T12:12:18.121Z,99.90
2019-01-14T12:14:59.528Z,99.90
2019-01-14T12:20:23.371Z,99.90
2019-01-14T12:23:04.331Z,99.90
2019-01-14T12:25:45.873Z,99.90
2019-01-14T12:28:27.257Z,99.90
2019-01-14T12:31:08.817Z,99.90
2019-01-14T12:33:49.824Z,99.90
2019-01-14T12:36:31.049Z,99.90
2019-01-14T12:39:19.260Z,99.90
2019-01-14T12:41:55.264Z,99.90
2019-01-14T12:44:36.527Z,99.90
2019-01-14T12:47:17.152Z,99.90
2019-01-14T12:49:58.635Z,99.90
2019-01-14T12:55:28.728Z,99.90
2019-01-14T13:01:06.432Z,99.90
2019-01-14T13:03:47.517Z,99.90
2019-01-14T13:06:28.970Z,99.90
2019-01-14T13:09:11.361Z,99.90
2019-01-14T13:14:36.233Z,99.90
2019-01-14T13:22:56.782Z,99.90
2019-01-14T13:25:40.853Z,99.90
2019-01-14T13:34:00.890Z,99.90
2019-01-14T13:36:42.093Z,99.90
2019-01-14T13:39:23.433Z,99.90
2019-01-14T13:42:06.424Z,99.90
2019-01-14T13:44:48.026Z,99.90
2019-01-14T13:50:29.714Z,99.90
2019-01-14T13:53:11.433Z,99.90
2019-01-14T13:55:59.295Z,99.90
2019-01-14T14:12:40.333Z,99.90
2019-01-14T14:15:20.870Z,99.90
2019-01-14T14:18:02.322Z,99.90
2019-01-14T14:20:43.753Z,99.90
2019-01-14T14:23:24.446Z,99.90
2019-01-14T14:26:05.170Z,99.90
2019-01-14T14:28:46.558Z,99.90
2019-01-14T14:31:27.285Z,99.90
2019-01-14T14:39:52.698Z,99.90
2019-01-14T14:42:34.001Z,99.90
2019-01-14T14:45:17.044Z,99.90
2019-01-14T14:47:57.921Z,99.90
2019-01-14T14:50:38.461Z,99.90
2019-01-14T14:53:20.154Z,99.90
2019-01-14T14:58:47.789Z,99.90
2019-01-14T15:01:28.706Z,99.90
2019-01-14T15:04:10.039Z,99.90
2019-01-14T15:06:54.858Z,99.90
2019-01-14T15:09:35.615Z,99.90
2019-01-14T15:12:16.798Z,99.90
2019-01-14T15:14:58.117Z,99.90
2019-01-14T15:17:42.858Z,99.90
2019-01-14T15:20:23.774Z,99.90
2019-01-14T15:23:04.873Z,99.90
2019-01-14T15:25:45.564Z,99.90
2019-01-14T15:28:29.557Z,99.90
2019-01-14T15:31:10.103Z,99.90
2019-01-14T15:33:50.925Z,99.90
2019-01-14T15:39:21.045Z,99.90
2019-01-14T15:44:45.749Z,99.90
2019-01-14T15:47:27.158Z,99.90
2019-01-14T15:50:08.701Z,99.90
2019-01-14T15:52:50.052Z,99.90
2019-01-14T15:55:30.906Z,99.90
2019-01-14T16:01:00.401Z,99.90
2019-01-14T16:06:27.679Z,99.90
2019-01-14T16:09:09.180Z,99.90
2019-01-14T16:14:40.448Z,99.90
2019-01-14T16:22:56.241Z,99.90
2019-01-14T16:25:36.776Z,99.90
2019-01-14T16:28:17.786Z,99.90
2019-01-14T16:30:59.265Z,99.90
2019-01-14T16:33:40.602Z,99.90
2019-01-14T16:39:11.298Z,99.90
2019-01-14T16:41:53.166Z,99.90
2019-01-14T16:44:34.230Z,99.90
2019-01-14T16:47:18.757Z,99.90
2019-01-14T16:52:48.112Z,99.90
2019-01-14T16:55:29.178Z,99.90
2019-01-14T17:00:59.432Z,99.90
2019-01-14T17:03:40.710Z,99.90
2019-01-14T17:06:21.663Z,99.90
2019-01-14T17:09:04.946Z,99.90
2019-01-14T17:11:45.652Z,99.90
2019-01-14T17:14:26.937Z,99.90
2019-01-14T17:17:08.276Z,99.90
2019-01-14T17:19:49.448Z,99.90
2019-01-14T17:25:27.611Z,99.90
2019-01-14T17:28:09.070Z,99.90
2019-01-14T17:33:38.128Z,99.90
2019-01-14T17:36:19.289Z,99.90
2019-01-14T17:39:00.622Z,99.90
2019-01-14T17:41:41.786Z,99.90
2019-01-14T17:49:52.784Z,99.90
2019-01-14T17:52:33.535Z,99.90
2019-01-14T17:55:14.331Z,99.90
2019-01-14T17:57:55.993Z,99.90
2019-01-14T18:06:22.885Z,99.90
2019-01-14T18:14:39.010Z,99.90
2019-01-14T18:20:16.724Z,99.90
2019-01-14T18:22:57.609Z,99.90
2019-01-14T18:28:28.338Z,99.90
2019-01-14T18:31:09.551Z,99.90
2019-01-14T18:39:34.101Z,99.90
2019-01-14T18:42:15.143Z,99.90
2019-01-14T18:47:45.099Z,99.90
2019-01-14T18:53:15.278Z,99.90
2019-01-14T18:58:40.709Z,99.90
2019-01-14T19:01:21.236Z,99.90
2019-01-14T19:04:02.533Z,99.90
2019-01-14T19:06:43.923Z,99.90
2019-01-14T19:09:25.407Z,99.90
2019-01-14T19:14:53.287Z,99.90
2019-01-14T19:17:34.430Z,99.90
2019-01-14T19:20:15.927Z,99.90
2019-01-14T19:22:57.535Z,99.90
2019-01-14T19:25:38.871Z,99.90
2019-01-14T19:31:03.306Z,99.90
2019-01-14T19:33:44.501Z,99.90
2019-01-14T19:36:25.845Z,99.90
2019-01-14T19:41:56.836Z,99.90
2019-01-14T19:47:24.486Z,99.90
2019-01-14T19:50:05.883Z,99.90
2019-01-14T19:58:25.391Z,99.90
2019-01-14T20:01:06.296Z,99.90
2019-01-14T20:06:30.142Z,99.90
2019-01-14T20:11:59.700Z,99.90
2019-01-14T20:14:41.243Z,99.90
2019-01-14T20:17:10.481Z,99.90
2019-01-14T20:19:39.639Z,99.90
2019-01-14T20:22:08.611Z,99.90
2019-01-14T20:24:37.566Z,99.90
2019-01-14T20:27:06.689Z,99.90
2019-01-14T20:29:35.743Z,99.90
2019-01-14T20:32:04.892Z,99.90
2019-01-14T20:34:33.898Z,99.90
2019-01-14T20:37:03.030Z,99.90
2019-01-14T20:39:32.065Z,99.90
2019-01-14T20:42:01.037Z,99.90
2019-01-14T20:44:30.808Z,99.90
2019-01-14T20:46:59.794Z,99.90
2019-01-14T20:49:28.833Z,99.90
2019-01-14T20:51:57.797Z,99.90
2019-01-14T20:54:26.777Z,99.90
2019-01-14T20:56:55.823Z,99.90
2019-01-14T20:59:24.893Z,99.90
2019-01-14T21:01:54.001Z,99.90
2019-01-14T21:04:23.072Z,99.90
2019-01-14T21:06:52.220Z,99.90
2019-01-14T21:09:22.698Z,99.90
2019-01-14T21:11:51.978Z,99.90
2019-01-14T21:14:20.961Z,99.90
2019-01-14T21:16:50.467Z,99.90
2019-01-14T21:19:19.468Z,99.90
2019-01-14T21:21:48.590Z,99.90
2019-01-14T21:24:17.757Z,99.90
2019-01-14T21:26:46.874Z,99.90
2019-01-14T21:29:15.854Z,99.90
2019-01-14T21:31:45.022Z,99.90
2019-01-14T21:34:14.114Z,99.90
2019-01-14T21:36:43.246Z,99.90
2019-01-14T21:39:12.990Z,99.90
2019-01-14T21:41:42.123Z,99.90
2019-01-14T21:44:11.279Z,99.90
2019-01-14T21:46:40.329Z,99.90
2019-01-14T21:49:09.489Z,99.90
2019-01-14T21:51:38.541Z,99.90
2019-01-14T21:54:07.734Z,99.90
2019-01-14T21:56:36.869Z,99.90
2019-01-14T21:59:06.044Z,99.90
2019-01-14T22:01:35.082Z,99.90
2019-01-14T22:04:04.190Z,99.90
2019-01-14T22:06:33.338Z,99.90
2019-01-14T22:09:02.556Z,99.90
2019-01-14T22:11:38.277Z,99.90
2019-01-14T22:14:02.373Z,99.90
2019-01-14T22:16:31.552Z,99.90
2019-01-14T22:19:00.632Z,99.90
2019-01-14T22:21:29.718Z,99.90
2019-01-14T22:23:58.769Z,99.90
2019-01-14T22:26:27.921Z,99.90
2019-01-14T22:28:57.174Z,99.90
2019-01-14T22:31:29.321Z,99.90
2019-01-14T22:33:58.266Z,99.90
2019-01-14T22:36:27.426Z,99.90
2019-01-14T22:38:56.477Z,99.90
2019-01-14T22:41:25.573Z,99.90
2019-01-14T22:43:54.542Z,99.90
2019-01-14T22:46:23.565Z,99.90
2019-01-14T22:48:52.606Z,99.90
2019-01-14T22:51:22.810Z,99.90
2019-01-14T22:53:51.783Z,99.90
2019-01-14T22:56:20.925Z,99.90
2019-01-14T22:58:50.015Z,99.90
2019-01-14T23:01:33.539Z,99.90
2019-01-14T23:04:02.725Z,99.90
2019-01-14T23:06:31.806Z,99.90
2019-01-14T23:09:00.861Z,99.90
2019-01-14T23:11:30.025Z,99.90
2019-01-14T23:13:59.220Z,99.90
2019-01-14T23:16:28.353Z,99.90
2019-01-14T23:18:57.441Z,99.90
2019-01-14T23:21:26.645Z,99.90
2019-01-14T23:23:55.791Z,99.90
2019-01-14T23:26:24.871Z,99.90
2019-01-14T23:28:53.986Z,99.90
2019-01-14T23:31:23.153Z,99.90
2019-01-14T23:33:52.217Z,99.90
2019-01-14T23:36:21.421Z,99.90
2019-01-14T23:38:50.449Z,99.90
2019-01-14T23:41:19.593Z,99.90
2019-01-14T23:43:49.065Z,99.90
2019-01-14T23:46:18.254Z,99.90
2019-01-14T23:48:47.346Z,99.90
2019-01-14T23:51:16.425Z,99.90
2019-01-14T23:53:45.518Z,99.90
2019-01-14T23:56:14.591Z,99.90
2019-01-14T23:58:43.650Z,99.90
